sensor_id;sensor_type;location;lat;lon;timestamp;P1;durP1;ratioP1;P2;durP2;ratioP2
2998;SDS011;1509;51.964;7.628;2023-10-09T00:02:10;6.17;;;4.97;;
2998;SDS011;1509;51.964;7.628;2023-10-09T00:04:37;9.03;;;4.00;;
2998;SDS011;1509;51.964;7.628;2023-10-09T00:07:06;9.80;;;4.87;;
2998;SDS011;1509;51.964;7.628;2023-10-09T00:09:42;6.97;;;4.23;;
2998;SDS011;1509;51.964;7.628;2023-10-09T00:12:16;11.97;;;5.37;;
2998;SDS011;1509;51.964;7.628;2023-10-09T00:14:54;9.07;;;6.00;;
2998;SDS011;1509;51.964;7.628;2023-10-09T00:17:32;6.73;;;4.47;;
2998;SDS011;1509;51.964;7.628;2023-10-09T00:19:57;8.80;;;5.90;;
2998;SDS011;1509;51.964;7.628;2023-10-09T00:22:25;8.30;;;4.90;;
2998;SDS011;1509;51.964;7.628;2023-10-09T00:24:55;10.50;;;5.40;;
2998;SDS011;1509;51.964;7.628;2023-10-09T00:27:46;9.60;;;6.03;;
2998;SDS011;1509;51.964;7.628;2023-10-09T00:30:13;9.73;;;6.23;;
2998;SDS011;1509;51.964;7.628;2023-10-09T00:32:43;10.33;;;5.67;;
2998;SDS011;1509;51.964;7.628;2023-10-09T00:35:18;11.87;;;6.50;;
2998;SDS011;1509;51.964;7.628;2023-10-09T00:38:01;12.33;;;6.67;;
2998;SDS011;1509;51.964;7.628;2023-10-09T00:40:45;11.30;;;6.80;;
2998;SDS011;1509;51.964;7.628;2023-10-09T00:43:15;10.50;;;6.40;;
2998;SDS011;1509;51.964;7.628;2023-10-09T00:45:44;11.40;;;6.53;;
2998;SDS011;1509;51.964;7.628;2023-10-09T00:48:11;16.83;;;8.90;;
2998;SDS011;1509;51.964;7.628;2023-10-09T00:50:46;14.40;;;7.33;;
2998;SDS011;1509;51.964;7.628;2023-10-09T00:53:17;11.77;;;7.50;;
2998;SDS011;1509;51.964;7.628;2023-10-09T00:55:55;14.73;;;7.43;;
2998;SDS011;1509;51.964;7.628;2023-10-09T00:58:31;10.67;;;7.97;;
2998;SDS011;1509;51.964;7.628;2023-10-09T01:01:00;15.53;;;8.67;;
2998;SDS011;1509;51.964;7.628;2023-10-09T01:03:29;11.43;;;7.97;;
2998;SDS011;1509;51.964;7.628;2023-10-09T01:05:59;15.57;;;9.07;;
2998;SDS011;1509;51.964;7.628;2023-10-09T01:08:35;15.60;;;9.60;;
2998;SDS011;1509;51.964;7.628;2023-10-09T01:11:13;13.17;;;7.40;;
2998;SDS011;1509;51.964;7.628;2023-10-09T01:13:43;11.60;;;8.00;;
2998;SDS011;1509;51.964;7.628;2023-10-09T01:16:14;13.47;;;8.03;;
2998;SDS011;1509;51.964;7.628;2023-10-09T01:18:43;15.13;;;9.23;;
2998;SDS011;1509;51.964;7.628;2023-10-09T01:21:12;14.83;;;8.87;;
2998;SDS011;1509;51.964;7.628;2023-10-09T01:23:40;15.30;;;9.53;;
2998;SDS011;1509;51.964;7.628;2023-10-09T01:26:23;15.53;;;9.80;;
2998;SDS011;1509;51.964;7.628;2023-10-09T01:28:50;17.60;;;9.40;;
2998;SDS011;1509;51.964;7.628;2023-10-09T01:31:15;14.23;;;10.40;;
2998;SDS011;1509;51.964;7.628;2023-10-09T01:33:41;16.00;;;9.93;;
2998;SDS011;1509;51.964;7.628;2023-10-09T01:36:07;17.50;;;11.30;;
2998;SDS011;1509;51.964;7.628;2023-10-09T01:38:34;19.43;;;12.43;;
2998;SDS011;1509;51.964;7.628;2023-10-09T01:41:12;20.97;;;12.37;;
2998;SDS011;1509;51.964;7.628;2023-10-09T01:43:41;14.93;;;10.20;;
2998;SDS011;1509;51.964;7.628;2023-10-09T01:46:10;20.93;;;10.20;;
2998;SDS011;1509;51.964;7.628;2023-10-09T01:48:42;18.40;;;10.67;;
2998;SDS011;1509;51.964;7.628;2023-10-09T01:51:14;18.83;;;11.80;;
2998;SDS011;1509;51.964;7.628;2023-10-09T01:53:44;16.43;;;10.40;;
2998;SDS011;1509;51.964;7.628;2023-10-09T01:56:12;15.90;;;10.10;;
2998;SDS011;1509;51.964;7.628;2023-10-09T01:58:40;18.30;;;11.00;;
2998;SDS011;1509;51.964;7.628;2023-10-09T02:01:06;18.67;;;10.50;;
2998;SDS011;1509;51.964;7.628;2023-10-09T02:03:32;19.67;;;10.90;;
2998;SDS011;1509;51.964;7.628;2023-10-09T02:06:02;22.60;;;12.53;;
2998;SDS011;1509;51.964;7.628;2023-10-09T02:08:29;21.33;;;12.57;;
2998;SDS011;1509;51.964;7.628;2023-10-09T02:10:55;20.13;;;11.90;;
2998;SDS011;1509;51.964;7.628;2023-10-09T02:13:21;19.43;;;11.50;;
2998;SDS011;1509;51.964;7.628;2023-10-09T02:16:00;19.03;;;11.67;;
2998;SDS011;1509;51.964;7.628;2023-10-09T02:18:39;22.57;;;12.77;;
2998;SDS011;1509;51.964;7.628;2023-10-09T02:21:17;17.57;;;10.83;;
2998;SDS011;1509;51.964;7.628;2023-10-09T02:23:53;20.70;;;13.03;;
2998;SDS011;1509;51.964;7.628;2023-10-09T02:26:22;21.57;;;13.13;;
2998;SDS011;1509;51.964;7.628;2023-10-09T02:28:53;22.00;;;12.60;;
2998;SDS011;1509;51.964;7.628;2023-10-09T02:31:30;21.40;;;12.07;;
2998;SDS011;1509;51.964;7.628;2023-10-09T02:34:05;19.27;;;12.10;;
2998;SDS011;1509;51.964;7.628;2023-10-09T02:36:33;27.30;;;13.73;;
2998;SDS011;1509;51.964;7.628;2023-10-09T02:39:14;37.63;;;14.40;;
2998;SDS011;1509;51.964;7.628;2023-10-09T02:41:56;24.83;;;13.40;;
2998;SDS011;1509;51.964;7.628;2023-10-09T02:44:26;21.77;;;14.53;;
2998;SDS011;1509;51.964;7.628;2023-10-09T02:47:04;20.03;;;14.37;;
2998;SDS011;1509;51.964;7.628;2023-10-09T02:49:37;22.60;;;13.57;;
2998;SDS011;1509;51.964;7.628;2023-10-09T02:52:06;19.77;;;14.37;;
2998;SDS011;1509;51.964;7.628;2023-10-09T02:54:32;22.23;;;14.93;;
2998;SDS011;1509;51.964;7.628;2023-10-09T02:57:06;22.63;;;14.60;;
2998;SDS011;1509;51.964;7.628;2023-10-09T02:59:36;23.50;;;14.47;;
2998;SDS011;1509;51.964;7.628;2023-10-09T03:02:09;22.40;;;14.23;;
2998;SDS011;1509;51.964;7.628;2023-10-09T03:04:36;23.93;;;15.07;;
2998;SDS011;1509;51.964;7.628;2023-10-09T03:07:04;29.80;;;15.97;;
2998;SDS011;1509;51.964;7.628;2023-10-09T03:09:29;24.13;;;14.83;;
2998;SDS011;1509;51.964;7.628;2023-10-09T03:11:57;23.07;;;14.03;;
2998;SDS011;1509;51.964;7.628;2023-10-09T03:14:30;21.20;;;15.20;;
2998;SDS011;1509;51.964;7.628;2023-10-09T03:16:57;26.50;;;15.23;;
2998;SDS011;1509;51.964;7.628;2023-10-09T03:19:25;23.67;;;14.00;;
2998;SDS011;1509;51.964;7.628;2023-10-09T03:21:51;23.30;;;16.00;;
2998;SDS011;1509;51.964;7.628;2023-10-09T03:24:17;24.07;;;15.10;;
2998;SDS011;1509;51.964;7.628;2023-10-09T03:26:47;28.40;;;16.10;;
2998;SDS011;1509;51.964;7.628;2023-10-09T03:29:14;22.17;;;15.90;;
2998;SDS011;1509;51.964;7.628;2023-10-09T03:31:40;23.27;;;16.63;;
2998;SDS011;1509;51.964;7.628;2023-10-09T03:34:08;24.77;;;16.30;;
2998;SDS011;1509;51.964;7.628;2023-10-09T03:36:36;28.60;;;16.77;;
2998;SDS011;1509;51.964;7.628;2023-10-09T03:39:05;26.20;;;15.87;;
2998;SDS011;1509;51.964;7.628;2023-10-09T03:41:49;26.93;;;16.23;;
2998;SDS011;1509;51.964;7.628;2023-10-09T03:44:15;31.53;;;17.73;;
2998;SDS011;1509;51.964;7.628;2023-10-09T03:46:43;32.90;;;17.43;;
2998;SDS011;1509;51.964;7.628;2023-10-09T03:49:10;30.77;;;17.93;;
2998;SDS011;1509;51.964;7.628;2023-10-09T03:51:37;34.63;;;18.50;;
2998;SDS011;1509;51.964;7.628;2023-10-09T03:54:04;25.80;;;15.53;;
2998;SDS011;1509;51.964;7.628;2023-10-09T03:56:33;29.20;;;19.10;;
2998;SDS011;1509;51.964;7.628;2023-10-09T03:59:00;29.80;;;18.53;;
2998;SDS011;1509;51.964;7.628;2023-10-09T04:01:28;34.07;;;18.43;;
2998;SDS011;1509;51.964;7.628;2023-10-09T04:03:55;33.63;;;19.30;;
2998;SDS011;1509;51.964;7.628;2023-10-09T04:06:24;29.97;;;18.57;;
2998;SDS011;1509;51.964;7.628;2023-10-09T04:08:55;31.53;;;20.00;;
2998;SDS011;1509;51.964;7.628;2023-10-09T04:11:25;32.53;;;19.43;;
2998;SDS011;1509;51.964;7.628;2023-10-09T04:13:51;28.60;;;18.00;;
2998;SDS011;1509;51.964;7.628;2023-10-09T04:16:25;30.97;;;20.53;;
2998;SDS011;1509;51.964;7.628;2023-10-09T04:18:56;25.50;;;18.93;;
2998;SDS011;1509;51.964;7.628;2023-10-09T04:21:25;32.60;;;20.37;;
2998;SDS011;1509;51.964;7.628;2023-10-09T04:24:04;30.50;;;19.70;;
2998;SDS011;1509;51.964;7.628;2023-10-09T04:26:34;30.37;;;18.80;;
2998;SDS011;1509;51.964;7.628;2023-10-09T04:29:02;26.13;;;18.87;;
2998;SDS011;1509;51.964;7.628;2023-10-09T04:31:28;29.83;;;19.60;;
2998;SDS011;1509;51.964;7.628;2023-10-09T04:33:59;27.23;;;19.83;;
2998;SDS011;1509;51.964;7.628;2023-10-09T04:36:43;26.67;;;19.00;;
2998;SDS011;1509;51.964;7.628;2023-10-09T04:39:12;33.33;;;19.30;;
2998;SDS011;1509;51.964;7.628;2023-10-09T04:41:37;28.00;;;19.10;;
2998;SDS011;1509;51.964;7.628;2023-10-09T04:44:06;31.37;;;17.73;;
2998;SDS011;1509;51.964;7.628;2023-10-09T04:46:48;28.20;;;19.83;;
2998;SDS011;1509;51.964;7.628;2023-10-09T04:49:33;27.30;;;18.30;;
2998;SDS011;1509;51.964;7.628;2023-10-09T04:52:13;33.07;;;20.77;;
2998;SDS011;1509;51.964;7.628;2023-10-09T04:54:54;29.00;;;19.13;;
2998;SDS011;1509;51.964;7.628;2023-10-09T04:57:32;33.90;;;19.20;;
2998;SDS011;1509;51.964;7.628;2023-10-09T05:00:07;27.90;;;19.20;;
2998;SDS011;1509;51.964;7.628;2023-10-09T05:02:48;27.63;;;19.60;;
2998;SDS011;1509;51.964;7.628;2023-10-09T05:05:20;32.90;;;19.40;;
2998;SDS011;1509;51.964;7.628;2023-10-09T05:08:05;40.50;;;21.37;;
2998;SDS011;1509;51.964;7.628;2023-10-09T05:10:50;31.03;;;21.40;;
2998;SDS011;1509;51.964;7.628;2023-10-09T05:13:34;32.00;;;20.93;;
2998;SDS011;1509;51.964;7.628;2023-10-09T05:16:07;32.70;;;21.73;;
2998;SDS011;1509;51.964;7.628;2023-10-09T05:18:53;36.07;;;22.50;;
2998;SDS011;1509;51.964;7.628;2023-10-09T05:21:37;33.50;;;21.43;;
2998;SDS011;1509;51.964;7.628;2023-10-09T05:24:08;34.00;;;21.60;;
2998;SDS011;1509;51.964;7.628;2023-10-09T05:26:37;38.93;;;22.33;;
2998;SDS011;1509;51.964;7.628;2023-10-09T05:29:16;32.13;;;21.77;;
2998;SDS011;1509;51.964;7.628;2023-10-09T05:31:50;40.30;;;22.47;;
2998;SDS011;1509;51.964;7.628;2023-10-09T05:34:40;32.77;;;20.93;;
2998;SDS011;1509;51.964;7.628;2023-10-09T05:37:25;34.37;;;20.67;;
2998;SDS011;1509;51.964;7.628;2023-10-09T05:39:58;38.00;;;23.53;;
2998;SDS011;1509;51.964;7.628;2023-10-09T05:42:31;36.30;;;21.47;;
2998;SDS011;1509;51.964;7.628;2023-10-09T05:45:07;35.27;;;21.90;;
2998;SDS011;1509;51.964;7.628;2023-10-09T05:47:49;34.20;;;23.70;;
2998;SDS011;1509;51.964;7.628;2023-10-09T05:50:19;42.07;;;25.37;;
2998;SDS011;1509;51.964;7.628;2023-10-09T05:52:48;31.40;;;21.47;;
2998;SDS011;1509;51.964;7.628;2023-10-09T05:55:21;40.83;;;24.37;;
2998;SDS011;1509;51.964;7.628;2023-10-09T05:58:06;39.43;;;23.00;;
2998;SDS011;1509;51.964;7.628;2023-10-09T06:00:52;37.10;;;25.80;;
2998;SDS011;1509;51.964;7.628;2023-10-09T06:03:50;46.13;;;26.83;;
2998;SDS011;1509;51.964;7.628;2023-10-09T06:06:20;41.70;;;24.97;;
2998;SDS011;1509;51.964;7.628;2023-10-09T06:09:02;36.80;;;24.40;;
2998;SDS011;1509;51.964;7.628;2023-10-09T06:11:34;46.73;;;26.77;;
2998;SDS011;1509;51.964;7.628;2023-10-09T06:14:03;41.33;;;27.67;;
2998;SDS011;1509;51.964;7.628;2023-10-09T06:16:32;41.87;;;27.93;;
2998;SDS011;1509;51.964;7.628;2023-10-09T06:19:04;43.03;;;28.07;;
2998;SDS011;1509;51.964;7.628;2023-10-09T06:21:36;43.20;;;26.00;;
2998;SDS011;1509;51.964;7.628;2023-10-09T06:24:24;46.90;;;27.00;;
2998;SDS011;1509;51.964;7.628;2023-10-09T06:27:08;35.47;;;23.97;;
2998;SDS011;1509;51.964;7.628;2023-10-09T06:29:35;39.97;;;25.90;;
2998;SDS011;1509;51.964;7.628;2023-10-09T06:32:04;41.07;;;24.97;;
2998;SDS011;1509;51.964;7.628;2023-10-09T06:34:52;42.87;;;25.27;;
2998;SDS011;1509;51.964;7.628;2023-10-09T06:37:42;35.07;;;25.27;;
2998;SDS011;1509;51.964;7.628;2023-10-09T06:40:47;42.97;;;25.50;;
2998;SDS011;1509;51.964;7.628;2023-10-09T06:43:16;39.53;;;25.83;;
2998;SDS011;1509;51.964;7.628;2023-10-09T06:45:43;44.67;;;25.10;;
2998;SDS011;1509;51.964;7.628;2023-10-09T06:48:09;38.70;;;24.57;;
2998;SDS011;1509;51.964;7.628;2023-10-09T06:50:54;41.10;;;27.10;;
2998;SDS011;1509;51.964;7.628;2023-10-09T06:53:33;43.30;;;27.00;;
2998;SDS011;1509;51.964;7.628;2023-10-09T06:56:18;41.47;;;25.60;;
2998;SDS011;1509;51.964;7.628;2023-10-09T07:01:23;38.53;;;25.60;;
2998;SDS011;1509;51.964;7.628;2023-10-09T07:04:07;37.73;;;26.27;;
2998;SDS011;1509;51.964;7.628;2023-10-09T07:06:52;37.17;;;23.87;;
2998;SDS011;1509;51.964;7.628;2023-10-09T07:09:18;46.27;;;25.87;;
2998;SDS011;1509;51.964;7.628;2023-10-09T07:11:47;48.80;;;28.13;;
2998;SDS011;1509;51.964;7.628;2023-10-09T07:14:17;40.53;;;24.37;;
2998;SDS011;1509;51.964;7.628;2023-10-09T07:17:03;42.07;;;26.33;;
2998;SDS011;1509;51.964;7.628;2023-10-09T07:19:41;36.50;;;25.30;;
2998;SDS011;1509;51.964;7.628;2023-10-09T07:22:10;39.23;;;26.30;;
2998;SDS011;1509;51.964;7.628;2023-10-09T07:27:31;42.53;;;26.50;;
2998;SDS011;1509;51.964;7.628;2023-10-09T07:30:19;39.60;;;26.97;;
2998;SDS011;1509;51.964;7.628;2023-10-09T07:33:05;41.53;;;25.50;;
2998;SDS011;1509;51.964;7.628;2023-10-09T07:35:34;36.80;;;24.07;;
2998;SDS011;1509;51.964;7.628;2023-10-09T07:40:45;35.40;;;24.57;;
2998;SDS011;1509;51.964;7.628;2023-10-09T07:43:21;37.50;;;24.20;;
2998;SDS011;1509;51.964;7.628;2023-10-09T07:45:53;43.87;;;24.70;;
2998;SDS011;1509;51.964;7.628;2023-10-09T07:48:40;34.53;;;23.80;;
2998;SDS011;1509;51.964;7.628;2023-10-09T07:51:17;40.10;;;25.17;;
2998;SDS011;1509;51.964;7.628;2023-10-09T07:53:56;37.30;;;24.97;;
2998;SDS011;1509;51.964;7.628;2023-10-09T07:56:32;31.77;;;23.70;;
2998;SDS011;1509;51.964;7.628;2023-10-09T07:59:14;35.07;;;23.33;;
2998;SDS011;1509;51.964;7.628;2023-10-09T08:01:44;37.77;;;25.97;;
2998;SDS011;1509;51.964;7.628;2023-10-09T08:04:27;35.83;;;23.53;;
2998;SDS011;1509;51.964;7.628;2023-10-09T08:07:09;37.63;;;24.60;;
2998;SDS011;1509;51.964;7.628;2023-10-09T08:09:44;31.70;;;21.80;;
2998;SDS011;1509;51.964;7.628;2023-10-09T08:12:14;30.20;;;22.10;;
2998;SDS011;1509;51.964;7.628;2023-10-09T08:15:03;39.13;;;24.17;;
2998;SDS011;1509;51.964;7.628;2023-10-09T08:17:57;38.70;;;24.20;;
2998;SDS011;1509;51.964;7.628;2023-10-09T08:20:34;34.27;;;23.20;;
2998;SDS011;1509;51.964;7.628;2023-10-09T08:23:16;36.77;;;23.67;;
2998;SDS011;1509;51.964;7.628;2023-10-09T08:26:03;36.50;;;23.47;;
2998;SDS011;1509;51.964;7.628;2023-10-09T08:28:39;31.10;;;22.37;;
2998;SDS011;1509;51.964;7.628;2023-10-09T08:31:10;36.60;;;23.67;;
2998;SDS011;1509;51.964;7.628;2023-10-09T08:33:55;35.67;;;24.47;;
2998;SDS011;1509;51.964;7.628;2023-10-09T08:36:27;33.97;;;21.90;;
2998;SDS011;1509;51.964;7.628;2023-10-09T08:39:06;34.67;;;23.10;;
2998;SDS011;1509;51.964;7.628;2023-10-09T08:42:06;38.83;;;24.33;;
2998;SDS011;1509;51.964;7.628;2023-10-09T08:44:39;36.30;;;24.20;;
2998;SDS011;1509;51.964;7.628;2023-10-09T08:47:17;39.40;;;25.00;;
2998;SDS011;1509;51.964;7.628;2023-10-09T08:49:43;33.80;;;22.70;;
2998;SDS011;1509;51.964;7.628;2023-10-09T08:52:11;36.30;;;22.50;;
2998;SDS011;1509;51.964;7.628;2023-10-09T08:54:38;34.50;;;23.07;;
2998;SDS011;1509;51.964;7.628;2023-10-09T08:57:03;33.00;;;24.37;;
2998;SDS011;1509;51.964;7.628;2023-10-09T08:59:39;33.60;;;23.90;;
2998;SDS011;1509;51.964;7.628;2023-10-09T09:02:07;36.47;;;22.90;;
2998;SDS011;1509;51.964;7.628;2023-10-09T09:04:39;38.07;;;24.00;;
2998;SDS011;1509;51.964;7.628;2023-10-09T09:07:11;36.30;;;23.50;;
2998;SDS011;1509;51.964;7.628;2023-10-09T09:09:57;38.40;;;26.33;;
2998;SDS011;1509;51.964;7.628;2023-10-09T09:12:29;35.50;;;22.07;;
2998;SDS011;1509;51.964;7.628;2023-10-09T09:15:02;34.73;;;24.20;;
2998;SDS011;1509;51.964;7.628;2023-10-09T09:17:32;34.00;;;24.23;;
2998;SDS011;1509;51.964;7.628;2023-10-09T09:19:58;35.00;;;24.27;;
2998;SDS011;1509;51.964;7.628;2023-10-09T09:22:24;39.07;;;23.57;;
2998;SDS011;1509;51.964;7.628;2023-10-09T09:24:58;39.40;;;25.57;;
2998;SDS011;1509;51.964;7.628;2023-10-09T09:27:43;39.53;;;22.90;;
2998;SDS011;1509;51.964;7.628;2023-10-09T09:30:23;30.93;;;22.80;;
2998;SDS011;1509;51.964;7.628;2023-10-09T09:32:53;33.73;;;23.23;;
2998;SDS011;1509;51.964;7.628;2023-10-09T09:35:37;36.53;;;23.43;;
2998;SDS011;1509;51.964;7.628;2023-10-09T09:38:03;35.20;;;25.53;;
2998;SDS011;1509;51.964;7.628;2023-10-09T09:40:32;40.37;;;23.97;;
2998;SDS011;1509;51.964;7.628;2023-10-09T09:43:06;33.20;;;23.87;;
2998;SDS011;1509;51.964;7.628;2023-10-09T09:45:46;31.50;;;22.70;;
2998;SDS011;1509;51.964;7.628;2023-10-09T09:48:15;36.07;;;23.53;;
2998;SDS011;1509;51.964;7.628;2023-10-09T09:50:42;36.17;;;24.37;;
2998;SDS011;1509;51.964;7.628;2023-10-09T09:53:31;34.50;;;22.63;;
2998;SDS011;1509;51.964;7.628;2023-10-09T09:56:03;39.20;;;25.70;;
2998;SDS011;1509;51.964;7.628;2023-10-09T09:58:29;30.63;;;21.57;;
2998;SDS011;1509;51.964;7.628;2023-10-09T10:01:07;35.33;;;23.17;;
2998;SDS011;1509;51.964;7.628;2023-10-09T10:03:50;32.83;;;23.60;;
2998;SDS011;1509;51.964;7.628;2023-10-09T10:06:22;37.53;;;23.67;;
2998;SDS011;1509;51.964;7.628;2023-10-09T10:08:51;36.00;;;21.83;;
2998;SDS011;1509;51.964;7.628;2023-10-09T10:12:00;30.80;;;23.67;;
2998;SDS011;1509;51.964;7.628;2023-10-09T10:14:09;35.67;;;23.60;;
2998;SDS011;1509;51.964;7.628;2023-10-09T10:17:02;30.50;;;21.97;;
2998;SDS011;1509;51.964;7.628;2023-10-09T10:20:07;27.90;;;21.20;;
2998;SDS011;1509;51.964;7.628;2023-10-09T10:22:43;28.10;;;20.63;;
2998;SDS011;1509;51.964;7.628;2023-10-09T10:25:33;31.73;;;20.47;;
2998;SDS011;1509;51.964;7.628;2023-10-09T10:30:53;27.93;;;20.00;;
2998;SDS011;1509;51.964;7.628;2023-10-09T10:33:20;31.00;;;21.27;;
2998;SDS011;1509;51.964;7.628;2023-10-09T10:35:48;34.27;;;21.87;;
2998;SDS011;1509;51.964;7.628;2023-10-09T10:43:36;33.67;;;20.97;;
2998;SDS011;1509;51.964;7.628;2023-10-09T10:46:18;28.43;;;19.40;;
2998;SDS011;1509;51.964;7.628;2023-10-09T10:49:06;33.87;;;21.00;;
2998;SDS011;1509;51.964;7.628;2023-10-09T10:52:02;31.83;;;19.13;;
2998;SDS011;1509;51.964;7.628;2023-10-09T10:54:43;29.73;;;18.90;;
2998;SDS011;1509;51.964;7.628;2023-10-09T10:57:18;25.87;;;19.73;;
2998;SDS011;1509;51.964;7.628;2023-10-09T10:59:53;31.07;;;20.80;;
2998;SDS011;1509;51.964;7.628;2023-10-09T11:02:38;24.87;;;18.17;;
2998;SDS011;1509;51.964;7.628;2023-10-09T11:05:07;24.90;;;17.50;;
2998;SDS011;1509;51.964;7.628;2023-10-09T11:07:39;25.40;;;18.53;;
2998;SDS011;1509;51.964;7.628;2023-10-09T11:10:06;28.47;;;18.57;;
2998;SDS011;1509;51.964;7.628;2023-10-09T11:15:13;27.70;;;19.10;;
2998;SDS011;1509;51.964;7.628;2023-10-09T11:18:01;27.60;;;18.67;;
2998;SDS011;1509;51.964;7.628;2023-10-09T11:20:35;28.63;;;19.83;;
2998;SDS011;1509;51.964;7.628;2023-10-09T11:23:03;22.30;;;18.10;;
2998;SDS011;1509;51.964;7.628;2023-10-09T11:25:43;28.47;;;18.30;;
2998;SDS011;1509;51.964;7.628;2023-10-09T11:28:21;29.33;;;18.13;;
2998;SDS011;1509;51.964;7.628;2023-10-09T11:31:09;27.20;;;17.27;;
2998;SDS011;1509;51.964;7.628;2023-10-09T11:33:47;27.57;;;17.27;;
2998;SDS011;1509;51.964;7.628;2023-10-09T11:36:20;29.23;;;18.13;;
2998;SDS011;1509;51.964;7.628;2023-10-09T11:38:59;23.93;;;18.37;;
2998;SDS011;1509;51.964;7.628;2023-10-09T11:41:41;31.37;;;18.23;;
2998;SDS011;1509;51.964;7.628;2023-10-09T11:44:07;23.10;;;17.40;;
2998;SDS011;1509;51.964;7.628;2023-10-09T11:47:06;22.47;;;17.80;;
2998;SDS011;1509;51.964;7.628;2023-10-09T11:49:54;25.57;;;18.30;;
2998;SDS011;1509;51.964;7.628;2023-10-09T11:52:27;26.17;;;19.60;;
2998;SDS011;1509;51.964;7.628;2023-10-09T11:54:56;27.13;;;19.10;;
2998;SDS011;1509;51.964;7.628;2023-10-09T11:57:23;22.23;;;17.03;;
2998;SDS011;1509;51.964;7.628;2023-10-09T11:59:55;26.23;;;19.13;;
2998;SDS011;1509;51.964;7.628;2023-10-09T12:02:22;22.63;;;17.87;;
2998;SDS011;1509;51.964;7.628;2023-10-09T12:04:48;27.80;;;18.20;;
2998;SDS011;1509;51.964;7.628;2023-10-09T12:07:14;26.43;;;18.00;;
2998;SDS011;1509;51.964;7.628;2023-10-09T12:09:39;29.17;;;18.10;;
2998;SDS011;1509;51.964;7.628;2023-10-09T12:12:06;22.00;;;17.73;;
2998;SDS011;1509;51.964;7.628;2023-10-09T12:14:34;24.90;;;16.90;;
2998;SDS011;1509;51.964;7.628;2023-10-09T12:17:03;23.67;;;16.70;;
2998;SDS011;1509;51.964;7.628;2023-10-09T12:19:35;22.97;;;17.20;;
2998;SDS011;1509;51.964;7.628;2023-10-09T12:22:02;21.13;;;16.80;;
2998;SDS011;1509;51.964;7.628;2023-10-09T12:24:30;22.37;;;14.77;;
2998;SDS011;1509;51.964;7.628;2023-10-09T12:26:58;23.10;;;16.50;;
2998;SDS011;1509;51.964;7.628;2023-10-09T12:29:24;22.73;;;15.63;;
2998;SDS011;1509;51.964;7.628;2023-10-09T12:31:54;24.03;;;16.20;;
2998;SDS011;1509;51.964;7.628;2023-10-09T12:34:23;30.17;;;17.43;;
2998;SDS011;1509;51.964;7.628;2023-10-09T12:36:54;22.37;;;16.77;;
2998;SDS011;1509;51.964;7.628;2023-10-09T12:39:21;23.03;;;15.77;;
2998;SDS011;1509;51.964;7.628;2023-10-09T12:41:50;34.20;;;15.90;;
2998;SDS011;1509;51.964;7.628;2023-10-09T12:44:19;24.37;;;16.67;;
2998;SDS011;1509;51.964;7.628;2023-10-09T12:46:45;25.40;;;15.77;;
2998;SDS011;1509;51.964;7.628;2023-10-09T12:49:18;22.70;;;16.93;;
2998;SDS011;1509;51.964;7.628;2023-10-09T12:51:50;28.17;;;15.17;;
2998;SDS011;1509;51.964;7.628;2023-10-09T12:54:17;24.07;;;15.27;;
2998;SDS011;1509;51.964;7.628;2023-10-09T12:56:45;20.77;;;15.40;;
2998;SDS011;1509;51.964;7.628;2023-10-09T12:59:13;23.43;;;15.57;;
2998;SDS011;1509;51.964;7.628;2023-10-09T13:01:42;22.77;;;15.07;;
2998;SDS011;1509;51.964;7.628;2023-10-09T13:04:12;24.43;;;16.10;;
2998;SDS011;1509;51.964;7.628;2023-10-09T13:06:42;19.47;;;15.27;;
2998;SDS011;1509;51.964;7.628;2023-10-09T13:09:09;21.97;;;16.30;;
2998;SDS011;1509;51.964;7.628;2023-10-09T13:11:39;20.03;;;14.97;;
2998;SDS011;1509;51.964;7.628;2023-10-09T13:14:06;21.60;;;16.13;;
2998;SDS011;1509;51.964;7.628;2023-10-09T13:16:41;22.33;;;15.37;;
2998;SDS011;1509;51.964;7.628;2023-10-09T13:19:07;24.23;;;14.80;;
2998;SDS011;1509;51.964;7.628;2023-10-09T13:21:36;27.13;;;14.80;;
2998;SDS011;1509;51.964;7.628;2023-10-09T13:24:04;23.80;;;15.37;;
2998;SDS011;1509;51.964;7.628;2023-10-09T13:26:30;19.50;;;13.50;;
2998;SDS011;1509;51.964;7.628;2023-10-09T13:28:58;22.70;;;15.73;;
2998;SDS011;1509;51.964;7.628;2023-10-09T13:31:25;22.33;;;16.00;;
2998;SDS011;1509;51.964;7.628;2023-10-09T13:33:52;25.33;;;15.60;;
2998;SDS011;1509;51.964;7.628;2023-10-09T13:36:22;21.23;;;14.27;;
2998;SDS011;1509;51.964;7.628;2023-10-09T13:38:59;21.20;;;14.80;;
2998;SDS011;1509;51.964;7.628;2023-10-09T13:41:55;21.07;;;15.03;;
2998;SDS011;1509;51.964;7.628;2023-10-09T13:44:29;21.70;;;16.00;;
2998;SDS011;1509;51.964;7.628;2023-10-09T13:46:56;24.80;;;15.47;;
2998;SDS011;1509;51.964;7.628;2023-10-09T13:49:23;24.30;;;14.80;;
2998;SDS011;1509;51.964;7.628;2023-10-09T13:51:55;22.17;;;12.80;;
2998;SDS011;1509;51.964;7.628;2023-10-09T13:54:23;19.37;;;14.20;;
2998;SDS011;1509;51.964;7.628;2023-10-09T13:57:01;21.30;;;14.97;;
2998;SDS011;1509;51.964;7.628;2023-10-09T13:59:29;24.83;;;14.30;;
2998;SDS011;1509;51.964;7.628;2023-10-09T14:01:55;21.30;;;14.87;;
2998;SDS011;1509;51.964;7.628;2023-10-09T14:04:24;23.90;;;14.17;;
2998;SDS011;1509;51.964;7.628;2023-10-09T14:06:53;24.80;;;14.00;;
2998;SDS011;1509;51.964;7.628;2023-10-09T14:09:22;21.20;;;13.90;;
2998;SDS011;1509;51.964;7.628;2023-10-09T14:12:03;20.57;;;13.73;;
2998;SDS011;1509;51.964;7.628;2023-10-09T14:14:39;19.23;;;12.70;;
2998;SDS011;1509;51.964;7.628;2023-10-09T14:17:12;27.13;;;13.70;;
2998;SDS011;1509;51.964;7.628;2023-10-09T14:19:44;17.03;;;13.30;;
2998;SDS011;1509;51.964;7.628;2023-10-09T14:22:15;24.37;;;14.50;;
2998;SDS011;1509;51.964;7.628;2023-10-09T14:24:43;20.40;;;14.33;;
2998;SDS011;1509;51.964;7.628;2023-10-09T14:27:11;23.30;;;13.43;;
2998;SDS011;1509;51.964;7.628;2023-10-09T14:29:43;18.57;;;13.60;;
2998;SDS011;1509;51.964;7.628;2023-10-09T14:32:12;16.23;;;13.97;;
2998;SDS011;1509;51.964;7.628;2023-10-09T14:34:38;18.60;;;13.00;;
2998;SDS011;1509;51.964;7.628;2023-10-09T14:37:11;18.13;;;13.50;;
2998;SDS011;1509;51.964;7.628;2023-10-09T14:39:39;18.23;;;14.13;;
2998;SDS011;1509;51.964;7.628;2023-10-09T14:42:06;26.73;;;14.03;;
2998;SDS011;1509;51.964;7.628;2023-10-09T14:44:35;21.70;;;14.33;;
2998;SDS011;1509;51.964;7.628;2023-10-09T14:47:05;20.90;;;14.33;;
2998;SDS011;1509;51.964;7.628;2023-10-09T14:49:31;21.60;;;14.20;;
2998;SDS011;1509;51.964;7.628;2023-10-09T14:52:03;21.13;;;13.80;;
2998;SDS011;1509;51.964;7.628;2023-10-09T14:54:33;24.43;;;15.37;;
2998;SDS011;1509;51.964;7.628;2023-10-09T14:56:58;26.30;;;14.13;;
2998;SDS011;1509;51.964;7.628;2023-10-09T14:59:24;21.30;;;16.30;;
2998;SDS011;1509;51.964;7.628;2023-10-09T15:01:50;23.80;;;15.73;;
2998;SDS011;1509;51.964;7.628;2023-10-09T15:04:19;25.17;;;16.17;;
2998;SDS011;1509;51.964;7.628;2023-10-09T15:06:45;21.00;;;15.43;;
2998;SDS011;1509;51.964;7.628;2023-10-09T15:09:14;23.33;;;15.93;;
2998;SDS011;1509;51.964;7.628;2023-10-09T15:11:53;19.77;;;15.00;;
2998;SDS011;1509;51.964;7.628;2023-10-09T15:14:21;20.50;;;16.23;;
2998;SDS011;1509;51.964;7.628;2023-10-09T15:16:48;23.47;;;16.00;;
2998;SDS011;1509;51.964;7.628;2023-10-09T15:19:15;22.50;;;15.13;;
2998;SDS011;1509;51.964;7.628;2023-10-09T15:21:42;20.93;;;14.60;;
2998;SDS011;1509;51.964;7.628;2023-10-09T15:24:11;19.47;;;15.77;;
2998;SDS011;1509;51.964;7.628;2023-10-09T15:26:44;24.97;;;16.90;;
2998;SDS011;1509;51.964;7.628;2023-10-09T15:29:17;20.10;;;15.90;;
2998;SDS011;1509;51.964;7.628;2023-10-09T15:31:53;19.67;;;14.97;;
2998;SDS011;1509;51.964;7.628;2023-10-09T15:34:20;20.47;;;15.87;;
2998;SDS011;1509;51.964;7.628;2023-10-09T15:36:46;22.60;;;16.57;;
2998;SDS011;1509;51.964;7.628;2023-10-09T15:39:15;26.27;;;17.47;;
2998;SDS011;1509;51.964;7.628;2023-10-09T15:41:44;22.57;;;15.57;;
2998;SDS011;1509;51.964;7.628;2023-10-09T15:44:11;24.53;;;16.50;;
2998;SDS011;1509;51.964;7.628;2023-10-09T15:46:38;23.37;;;16.40;;